createdAt,value
2023-02-14T00:02:06.219Z,10.10
2023-02-14T00:07:16.680Z,8.60
2023-02-14T00:12:29.164Z,11.30
2023-02-14T00:22:47.688Z,9.00
2023-02-14T00:27:55.787Z,8.90
2023-02-14T00:33:03.020Z,8.90
2023-02-14T00:38:10.264Z,9.00
2023-02-14T00:43:20.128Z,8.50
2023-02-14T00:48:27.379Z,9.40
2023-02-14T00:53:35.128Z,8.80
2023-02-14T00:58:42.333Z,9.00
2023-02-14T01:03:50.096Z,8.30
2023-02-14T01:08:59.000Z,9.00
2023-02-14T01:14:06.393Z,8.80
2023-02-14T01:19:14.167Z,8.60
2023-02-14T01:24:25.239Z,10.20
2023-02-14T01:29:32.402Z,8.50
2023-02-14T01:34:39.884Z,8.40
2023-02-14T01:39:47.130Z,8.70
2023-02-14T01:45:04.340Z,8.40
2023-02-14T01:50:19.564Z,8.40
2023-02-14T01:55:30.474Z,9.70
2023-02-14T02:00:57.103Z,10.20
2023-02-14T02:06:12.301Z,10.10
2023-02-14T02:11:19.478Z,9.00
2023-02-14T02:16:44.550Z,8.70
2023-02-14T02:22:13.109Z,9.00
2023-02-14T02:27:41.990Z,8.70
2023-02-14T02:33:15.717Z,9.30
2023-02-14T02:38:37.588Z,9.70
2023-02-14T02:43:53.981Z,9.80
2023-02-14T02:49:08.113Z,8.60
2023-02-14T02:54:21.547Z,8.60
2023-02-14T02:59:31.912Z,9.80
2023-02-14T03:04:54.762Z,10.80
2023-02-14T03:10:07.564Z,9.60
2023-02-14T03:15:22.694Z,9.30
2023-02-14T03:20:39.888Z,9.20
2023-02-14T03:25:56.314Z,9.20
2023-02-14T03:31:09.980Z,8.90
2023-02-14T03:36:22.119Z,11.20
2023-02-14T03:41:36.620Z,10.30
2023-02-14T03:46:49.290Z,10.20
2023-02-14T03:52:00.288Z,9.00
2023-02-14T03:57:17.341Z,9.50
2023-02-14T04:02:30.443Z,9.30
2023-02-14T04:07:55.565Z,9.80
2023-02-14T04:13:04.894Z,8.30
2023-02-14T04:18:30.824Z,10.10
2023-02-14T04:23:38.294Z,8.40
2023-02-14T04:28:45.494Z,10.90
2023-02-14T04:33:52.634Z,8.90
2023-02-14T04:38:59.822Z,9.80
2023-02-14T04:44:07.220Z,9.60
2023-02-14T04:49:14.489Z,8.90
2023-02-14T04:54:21.753Z,8.90
2023-02-14T04:59:29.329Z,9.40
2023-02-14T05:04:36.560Z,10.40
2023-02-14T05:09:43.700Z,11.00
2023-02-14T05:14:50.836Z,11.20
2023-02-14T05:19:58.086Z,9.10
2023-02-14T05:25:05.505Z,8.40
2023-02-14T05:30:15.204Z,7.90
2023-02-14T05:35:22.575Z,10.60
2023-02-14T05:40:30.199Z,9.80
2023-02-14T05:45:37.564Z,10.90
2023-02-14T05:50:45.708Z,8.80
2023-02-14T05:56:01.572Z,8.50
2023-02-14T06:01:13.542Z,9.00
2023-02-14T06:06:20.878Z,9.40
2023-02-14T06:11:38.792Z,13.10
2023-02-14T06:16:53.475Z,9.50
2023-02-14T06:22:00.663Z,10.70
2023-02-14T06:27:08.004Z,8.90
2023-02-14T06:32:15.221Z,9.20
2023-02-14T06:37:22.614Z,10.10
2023-02-14T06:42:41.192Z,10.40
2023-02-14T06:48:00.210Z,9.90
2023-02-14T06:53:07.488Z,8.70
2023-02-14T06:58:18.593Z,8.90
2023-02-14T07:03:25.963Z,9.40
2023-02-14T07:08:33.461Z,9.80
2023-02-14T07:13:40.716Z,9.10
2023-02-14T07:18:48.118Z,11.20
2023-02-14T07:23:55.771Z,9.30
2023-02-14T07:29:02.919Z,9.40
2023-02-14T07:34:10.015Z,9.70
2023-02-14T07:39:17.204Z,8.10
2023-02-14T07:44:24.550Z,8.80
2023-02-14T07:49:31.642Z,8.60
2023-02-14T07:54:38.892Z,9.20
2023-02-14T07:59:46.049Z,8.70
2023-02-14T08:04:53.254Z,9.50
2023-02-14T08:10:01.474Z,8.10
2023-02-14T08:15:26.872Z,8.70
2023-02-14T08:20:34.174Z,8.50
2023-02-14T08:25:41.379Z,9.20
2023-02-14T08:30:49.009Z,10.10
2023-02-14T08:35:56.225Z,8.80
2023-02-14T08:41:08.862Z,9.40
2023-02-14T08:46:17.045Z,7.60
2023-02-14T08:51:25.989Z,9.20
2023-02-14T08:56:35.538Z,10.00
2023-02-14T09:01:42.816Z,9.30
2023-02-14T09:06:49.947Z,10.00
2023-02-14T09:11:57.497Z,9.90
2023-02-14T09:17:05.946Z,9.00
2023-02-14T09:22:13.678Z,9.60
2023-02-14T09:27:21.389Z,8.60
2023-02-14T09:32:29.520Z,8.10
2023-02-14T09:37:54.410Z,8.60
2023-02-14T09:43:09.946Z,8.80
2023-02-14T09:48:32.379Z,8.00
2023-02-14T09:53:45.693Z,10.20
2023-02-14T09:59:00.731Z,8.60
2023-02-14T10:04:22.544Z,7.90
2023-02-14T10:09:50.134Z,7.80
2023-02-14T10:15:01.675Z,7.70
2023-02-14T10:20:19.862Z,7.20
2023-02-14T10:25:30.541Z,8.20
2023-02-14T10:30:41.406Z,7.30
2023-02-14T10:35:51.351Z,8.10
2023-02-14T10:41:31.371Z,11.50
2023-02-14T10:47:06.274Z,7.10
2023-02-14T10:52:24.162Z,7.00
2023-02-14T10:58:05.881Z,7.00
2023-02-14T11:03:15.516Z,8.40
2023-02-14T11:08:29.087Z,6.50
2023-02-14T11:13:39.692Z,6.50
2023-02-14T11:18:46.995Z,17.30
2023-02-14T11:23:54.457Z,6.30
2023-02-14T11:29:04.405Z,8.30
2023-02-14T11:34:36.916Z,7.50
2023-02-14T11:40:24.693Z,7.50
2023-02-14T11:45:37.978Z,7.30
2023-02-14T11:50:54.675Z,7.50
2023-02-14T11:56:02.094Z,6.50
2023-02-14T12:01:12.500Z,9.30
2023-02-14T12:06:27.860Z,7.70
2023-02-14T12:11:35.100Z,6.90
2023-02-14T12:16:49.207Z,8.20
2023-02-14T12:22:01.427Z,7.20
2023-02-14T12:27:22.641Z,8.10
2023-02-14T12:32:32.461Z,5.50
2023-02-14T12:37:56.070Z,5.40
2023-02-14T12:43:35.696Z,6.10
2023-02-14T12:48:57.667Z,5.90
2023-02-14T12:54:21.140Z,10.90
2023-02-14T12:59:41.515Z,5.00
2023-02-14T13:05:08.459Z,5.30
2023-02-14T13:10:30.133Z,4.70
2023-02-14T13:15:43.838Z,6.80
2023-02-14T13:20:55.533Z,6.00
2023-02-14T13:26:07.859Z,5.80
2023-02-14T13:31:15.352Z,6.40
2023-02-14T13:36:24.826Z,6.70
2023-02-14T13:42:02.699Z,6.40
2023-02-14T13:47:17.448Z,6.50
2023-02-14T13:52:46.635Z,5.00
2023-02-14T13:58:07.546Z,5.80
2023-02-14T14:04:02.307Z,5.00
2023-02-14T14:09:13.311Z,5.30
2023-02-14T14:14:37.987Z,6.00
2023-02-14T14:19:47.448Z,6.40
2023-02-14T14:25:04.164Z,5.80
2023-02-14T14:30:20.851Z,5.90
2023-02-14T14:35:29.197Z,6.40
2023-02-14T14:40:39.517Z,5.50
2023-02-14T14:45:51.035Z,6.20
2023-02-14T14:50:59.207Z,5.20
2023-02-14T14:56:16.035Z,5.50
2023-02-14T15:01:37.222Z,5.90
2023-02-14T15:06:44.670Z,6.20
2023-02-14T15:12:10.894Z,5.30
2023-02-14T15:17:26.716Z,5.50
2023-02-14T15:22:42.663Z,5.00
2023-02-14T15:27:54.259Z,5.40
2023-02-14T15:33:01.864Z,4.50
2023-02-14T15:38:12.251Z,4.20
2023-02-14T15:43:29.816Z,6.50
2023-02-14T15:48:40.676Z,8.40
2023-02-14T15:53:53.313Z,7.20
2023-02-14T15:59:07.136Z,5.00
2023-02-14T16:04:14.577Z,4.40
2023-02-14T16:09:34.367Z,20.10
2023-02-14T16:14:45.788Z,11.60
2023-02-14T16:19:53.421Z,7.00
2023-02-14T16:25:01.324Z,8.40
2023-02-14T16:35:22.043Z,8.10
2023-02-14T16:40:31.025Z,10.90
2023-02-14T16:45:38.103Z,5.20
2023-02-14T16:50:46.315Z,7.10
2023-02-14T16:55:56.013Z,17.10
2023-02-14T17:01:03.659Z,18.70
2023-02-14T17:06:14.813Z,13.40
2023-02-14T17:11:23.182Z,15.40
2023-02-14T17:16:32.608Z,14.10
2023-02-14T17:21:39.958Z,15.70
2023-02-14T17:26:47.245Z,30.10
2023-02-14T17:31:54.820Z,14.20
2023-02-14T17:37:03.022Z,17.10
2023-02-14T17:42:12.033Z,15.70
2023-02-14T17:47:20.851Z,11.80
2023-02-14T17:52:29.902Z,11.80
2023-02-14T17:57:37.339Z,11.20
2023-02-14T18:02:44.814Z,15.20
2023-02-14T18:07:55.321Z,11.50
2023-02-14T18:13:06.746Z,9.00
2023-02-14T18:18:14.669Z,10.20
2023-02-14T18:23:21.974Z,13.60
2023-02-14T18:28:32.571Z,16.50
2023-02-14T18:33:40.716Z,13.40
2023-02-14T18:38:49.896Z,11.00
2023-02-14T18:43:57.153Z,14.00
2023-02-14T18:49:06.096Z,14.10
2023-02-14T18:54:19.839Z,13.50
2023-02-14T18:59:30.684Z,14.40
2023-02-14T19:04:38.088Z,10.40
2023-02-14T19:09:45.607Z,13.10
2023-02-14T19:14:54.494Z,20.60
2023-02-14T19:20:08.576Z,12.90
2023-02-14T19:25:15.907Z,15.20
2023-02-14T19:30:23.697Z,21.00
2023-02-14T19:35:31.517Z,16.60
2023-02-14T19:40:51.404Z,18.90
2023-02-14T19:46:04.942Z,15.60
2023-02-14T19:51:19.087Z,22.20
2023-02-14T19:56:28.930Z,14.70
2023-02-14T20:01:39.754Z,18.60
2023-02-14T20:06:48.046Z,19.30
2023-02-14T20:11:56.929Z,17.60
2023-02-14T20:17:07.738Z,16.80
2023-02-14T20:22:15.498Z,14.70
2023-02-14T20:27:24.842Z,14.50
2023-02-14T20:32:35.364Z,14.90
2023-02-14T20:37:42.736Z,14.80
2023-02-14T20:42:54.259Z,15.70
2023-02-14T20:48:07.088Z,16.60
2023-02-14T20:58:52.654Z,17.90
2023-02-14T21:09:05.977Z,22.90
2023-02-14T21:14:13.156Z,26.70
2023-02-14T21:19:20.452Z,24.80
2023-02-14T21:24:27.594Z,29.60
2023-02-14T21:29:34.682Z,35.80
2023-02-14T21:34:41.946Z,25.60
2023-02-14T21:39:50.264Z,28.10
2023-02-14T21:45:17.301Z,28.50
2023-02-14T21:50:33.726Z,31.40
2023-02-14T21:55:43.003Z,30.50
2023-02-14T22:00:50.128Z,37.20
2023-02-14T22:06:03.973Z,36.10
2023-02-14T22:11:13.340Z,38.90
2023-02-14T22:16:22.772Z,40.40
2023-02-14T22:21:33.587Z,39.90
2023-02-14T22:26:40.999Z,40.60
2023-02-14T22:31:48.395Z,50.60
2023-02-14T22:36:55.819Z,48.70
2023-02-14T22:42:06.968Z,48.00
2023-02-14T22:47:14.073Z,43.60
2023-02-14T22:52:21.226Z,48.00
2023-02-14T22:57:28.322Z,49.20
2023-02-14T23:02:35.842Z,68.10
2023-02-14T23:07:43.051Z,78.60
2023-02-14T23:13:07.691Z,82.60
2023-02-14T23:18:33.542Z,79.70
2023-02-14T23:23:40.730Z,65.40
2023-02-14T23:28:47.888Z,69.00
2023-02-14T23:33:55.113Z,72.90
2023-02-14T23:39:02.286Z,69.00
2023-02-14T23:44:10.113Z,68.00
2023-02-14T23:49:17.981Z,65.30
2023-02-14T23:54:26.358Z,68.40
2023-02-14T23:59:33.445Z,68.90
